TimeCST,TemperatureF,Dew PointF,Humidity,Sea Level PressureIn,VisibilityMPH,Wind Direction,Wind SpeedMPH,Gust SpeedMPH,PrecipitationIn,Events,Conditions,WindDirDegrees,DateUTC
12:53 AM,62.1,57.0,84,30.21,10.0,Calm,Calm,-,N/A,,Overcast,0,2012-11-23 06:53:00
1:53 AM,60.1,57.0,90,30.20,8.0,Calm,Calm,-,N/A,,Mostly Cloudy,0,2012-11-23 07:53:00
2:32 AM,55.4,53.6,94,30.18,1.8,SE,3.5,-,N/A,,Clear,130,2012-11-23 08:32:00
2:40 AM,55.4,55.4,100,30.18,3.0,Calm,Calm,-,N/A,,Clear,0,2012-11-23 08:40:00
2:48 AM,55.4,53.6,94,30.17,1.8,Calm,Calm,-,N/A,,Clear,0,2012-11-23 08:48:00
2:53 AM,55.0,54.0,96,30.20,2.0,Calm,Calm,-,N/A,,Clear,0,2012-11-23 08:53:00
3:03 AM,55.4,53.6,94,30.17,3.0,Calm,Calm,-,N/A,,Clear,0,2012-11-23 09:03:00
3:53 AM,55.0,53.1,93,30.20,5.0,Calm,Calm,-,N/A,,Clear,0,2012-11-23 09:53:00
4:06 AM,55.4,53.6,94,30.18,2.5,Calm,Calm,-,N/A,,Clear,0,2012-11-23 10:06:00
4:14 AM,55.4,53.6,94,30.18,4.0,Calm,Calm,-,N/A,,Clear,0,2012-11-23 10:14:00
4:37 AM,53.6,53.6,100,30.18,1.8,Calm,Calm,-,N/A,,Clear,0,2012-11-23 10:37:00
4:53 AM,54.0,52.0,93,30.21,2.5,Calm,Calm,-,N/A,,Clear,0,2012-11-23 10:53:00
5:04 AM,53.6,51.8,94,30.19,1.5,Calm,Calm,-,N/A,,Clear,0,2012-11-23 11:04:00
5:25 AM,53.6,51.8,94,30.20,0.5,Calm,Calm,-,N/A,Fog,Fog,0,2012-11-23 11:25:00
5:32 AM,53.6,51.8,94,30.20,0.2,Calm,Calm,-,N/A,Fog,Fog,0,2012-11-23 11:32:00
5:40 AM,51.8,51.8,100,30.20,1.0,Calm,Calm,-,N/A,,Clear,0,2012-11-23 11:40:00
5:44 AM,53.6,51.8,94,30.20,3.0,Calm,Calm,-,N/A,,Clear,0,2012-11-23 11:44:00
5:47 AM,53.6,51.8,94,30.20,2.5,Calm,Calm,-,N/A,,Partly Cloudy,0,2012-11-23 11:47:00
5:51 AM,53.6,51.8,94,30.20,1.0,Calm,Calm,-,N/A,,Mist,0,2012-11-23 11:51:00
5:53 AM,53.6,51.8,94,30.20,0.8,Calm,Calm,-,N/A,,Mist,0,2012-11-23 11:53:00
6:05 AM,53.6,51.8,94,30.21,1.2,Calm,Calm,-,N/A,,Partly Cloudy,0,2012-11-23 12:05:00
6:09 AM,53.6,51.8,94,30.21,3.0,Calm,Calm,-,N/A,,Partly Cloudy,0,2012-11-23 12:09:00
6:53 AM,55.9,54.0,93,30.24,5.0,Calm,Calm,-,N/A,,Overcast,0,2012-11-23 12:53:00
7:53 AM,61.0,59.0,93,30.25,5.0,ESE,3.5,-,N/A,,Overcast,110,2012-11-23 13:53:00
8:53 AM,64.0,61.0,90,30.27,6.0,ESE,3.5,-,N/A,,Overcast,110,2012-11-23 14:53:00
9:53 AM,68.0,61.0,78,30.29,10.0,SE,3.5,-,N/A,,Overcast,140,2012-11-23 15:53:00
10:53 AM,70.0,62.1,76,30.28,10.0,SSE,3.5,-,N/A,,Overcast,150,2012-11-23 16:53:00
11:53 AM,73.9,60.1,62,30.26,10.0,SE,3.5,-,N/A,,Overcast,130,2012-11-23 17:53:00
12:53 PM,75.9,57.9,54,30.24,10.0,Variable,3.5,-,N/A,,Overcast,0,2012-11-23 18:53:00
1:18 PM,77.0,59.0,54,30.20,10.0,North,6.9,-,N/A,,Overcast,360,2012-11-23 19:18:00
1:53 PM,75.0,59.0,57,30.23,10.0,NNW,6.9,-,0.00,,Overcast,330,2012-11-23 19:53:00
2:53 PM,69.1,62.1,78,30.23,10.0,NNW,10.4,-,0.00,Rain,Light Rain,340,2012-11-23 20:53:00
3:53 PM,68.0,63.0,84,30.23,10.0,NNW,8.1,-,0.00,,Overcast,340,2012-11-23 21:53:00
4:53 PM,66.0,62.1,87,30.24,9.0,North,5.8,-,0.00,,Overcast,350,2012-11-23 22:53:00
5:53 PM,66.0,62.1,87,30.26,10.0,North,5.8,-,N/A,,Overcast,350,2012-11-23 23:53:00
6:33 PM,64.4,62.6,94,30.24,10.0,North,9.2,-,N/A,,Overcast,360,2012-11-24 00:33:00
6:41 PM,64.4,62.6,94,30.25,9.0,North,8.1,-,N/A,,Overcast,360,2012-11-24 00:41:00
6:53 PM,64.9,62.1,90,30.27,9.0,North,8.1,-,N/A,,Overcast,360,2012-11-24 00:53:00
7:53 PM,64.0,59.0,84,30.29,8.0,North,10.4,-,N/A,,Overcast,10,2012-11-24 01:53:00
8:04 PM,64.4,59.0,83,30.27,8.0,North,12.7,-,N/A,,Overcast,360,2012-11-24 02:04:00
8:18 PM,62.6,59.0,88,30.27,8.0,North,10.4,-,N/A,,Overcast,360,2012-11-24 02:18:00
8:26 PM,62.6,57.2,82,30.27,8.0,North,12.7,19.6,N/A,,Overcast,360,2012-11-24 02:26:00
8:53 PM,62.1,55.9,80,30.30,9.0,North,12.7,-,N/A,,Overcast,10,2012-11-24 02:53:00
9:24 PM,62.6,55.4,77,30.29,10.0,North,12.7,-,N/A,,Overcast,10,2012-11-24 03:24:00
9:53 PM,61.0,52.0,72,30.31,10.0,NNE,15.0,19.6,N/A,,Overcast,30,2012-11-24 03:53:00
10:53 PM,61.0,48.9,64,30.32,10.0,NNE,9.2,-,N/A,,Overcast,20,2012-11-24 04:53:00
11:53 PM,60.1,48.0,64,30.32,10.0,North,9.2,-,N/A,,Overcast,10,2012-11-24 05:53:00